createdAt,value
2019-05-01T00:01:24.092Z,5.05
2019-05-01T00:04:37.223Z,5.01
2019-05-01T00:07:16.909Z,4.82
2019-05-01T00:09:50.881Z,4.88
2019-05-01T00:12:24.671Z,4.85
2019-05-01T00:14:59.826Z,4.81
2019-05-01T00:17:34.400Z,4.81
2019-05-01T00:20:08.013Z,4.94
2019-05-01T00:22:39.562Z,4.92
2019-05-01T00:25:12.014Z,4.78
2019-05-01T00:27:45.531Z,4.63
2019-05-01T00:30:29.671Z,4.60
2019-05-01T00:32:56.234Z,4.52
2019-05-01T00:35:29.063Z,4.44
2019-05-01T00:38:02.382Z,4.42
2019-05-01T00:40:35.682Z,4.41
2019-05-01T00:43:09.038Z,4.41
2019-05-01T00:45:42.042Z,4.38
2019-05-01T00:48:14.747Z,4.35
2019-05-01T00:50:47.785Z,4.30
2019-05-01T00:53:21.330Z,4.38
2019-05-01T00:56:15.745Z,4.24
2019-05-01T00:59:07.658Z,4.21
2019-05-01T01:02:00.104Z,4.20
2019-05-01T01:04:33.567Z,4.15
2019-05-01T01:07:05.703Z,4.08
2019-05-01T01:09:37.700Z,4.11
2019-05-01T01:12:10.968Z,4.10
2019-05-01T01:14:44.339Z,4.07
2019-05-01T01:17:17.742Z,4.01
2019-05-01T01:19:51.128Z,3.99
2019-05-01T01:22:23.879Z,3.93
2019-05-01T01:24:57.658Z,3.92
2019-05-01T01:27:31.090Z,3.91
2019-05-01T01:30:03.962Z,3.88
2019-05-01T01:32:36.354Z,3.88
2019-05-01T01:35:10.083Z,3.83
2019-05-01T01:37:42.736Z,3.80
2019-05-01T01:40:15.789Z,3.79
2019-05-01T01:42:48.516Z,3.79
2019-05-01T01:45:27.648Z,3.71
2019-05-01T01:48:16.090Z,3.70
2019-05-01T01:50:49.921Z,3.75
2019-05-01T01:53:24.437Z,3.64
2019-05-01T01:55:58.062Z,3.64
2019-05-01T01:58:31.446Z,3.62
2019-05-01T02:01:18.327Z,3.53
2019-05-01T02:03:56.924Z,3.58
2019-05-01T02:06:30.201Z,3.58
2019-05-01T02:09:03.300Z,3.51
2019-05-01T02:11:36.359Z,3.48
2019-05-01T02:14:08.079Z,3.64
2019-05-01T02:16:40.485Z,3.63
2019-05-01T02:19:12.957Z,3.61
2019-05-01T02:21:46.308Z,3.63
2019-05-01T02:24:19.271Z,3.64
2019-05-01T02:26:54.637Z,3.73
2019-05-01T02:29:37.873Z,3.60
2019-05-01T02:32:10.890Z,3.59
2019-05-01T02:34:45.139Z,3.50
2019-05-01T02:37:20.681Z,3.49
2019-05-01T02:39:55.381Z,3.37
2019-05-01T02:42:33.259Z,3.33
2019-05-01T02:45:07.297Z,3.42
2019-05-01T02:47:42.350Z,3.39
2019-05-01T02:50:16.638Z,3.33
2019-05-01T02:52:50.605Z,3.34
2019-05-01T02:55:30.749Z,3.28
2019-05-01T02:58:04.368Z,3.25
2019-05-01T03:00:36.902Z,3.20
2019-05-01T03:03:10.960Z,3.34
2019-05-01T03:05:44.815Z,3.26
2019-05-01T03:08:18.312Z,3.31
2019-05-01T03:10:50.000Z,3.22
2019-05-01T03:13:22.387Z,3.21
2019-05-01T03:15:55.861Z,3.22
2019-05-01T03:18:35.455Z,3.13
2019-05-01T03:21:13.911Z,3.16
2019-05-01T03:24:06.569Z,3.14
2019-05-01T03:26:39.921Z,3.11
2019-05-01T03:29:12.944Z,3.03
2019-05-01T03:32:12.870Z,2.97
2019-05-01T03:34:23.599Z,2.96
2019-05-01T03:36:57.167Z,3.06
2019-05-01T03:39:29.749Z,2.93
2019-05-01T03:42:01.951Z,2.91
2019-05-01T03:44:35.492Z,2.90
2019-05-01T03:47:09.427Z,2.90
2019-05-01T03:49:42.293Z,2.87
2019-05-01T03:52:16.520Z,2.95
2019-05-01T03:54:49.884Z,2.95
2019-05-01T03:57:23.199Z,2.90
2019-05-01T03:59:55.175Z,2.96
2019-05-01T04:02:47.309Z,2.91
2019-05-01T04:05:20.792Z,2.95
2019-05-01T04:07:53.976Z,2.90
2019-05-01T04:10:28.289Z,2.88
2019-05-01T04:13:01.755Z,2.91
2019-05-01T04:15:35.729Z,2.79
2019-05-01T04:18:09.464Z,2.83
2019-05-01T04:20:43.169Z,2.86
2019-05-01T04:23:16.580Z,2.86
2019-05-01T04:25:50.781Z,2.89
2019-05-01T04:28:33.450Z,2.88
2019-05-01T04:31:17.873Z,2.98
2019-05-01T04:33:54.339Z,2.97
2019-05-01T04:36:33.254Z,3.02
2019-05-01T04:39:08.197Z,3.08
2019-05-01T04:41:41.670Z,3.08
2019-05-01T04:44:14.785Z,3.10
2019-05-01T04:46:48.292Z,3.12
2019-05-01T04:49:22.189Z,3.13
2019-05-01T04:52:07.136Z,3.27
2019-05-01T04:54:40.478Z,3.35
2019-05-01T04:57:14.155Z,3.33
2019-05-01T04:59:48.019Z,3.44
2019-05-01T05:02:30.127Z,3.51
2019-05-01T05:05:03.707Z,3.58
2019-05-01T05:07:35.246Z,3.73
2019-05-01T05:10:08.238Z,3.84
2019-05-01T05:13:09.963Z,3.84
2019-05-01T05:15:53.079Z,3.88
2019-05-01T05:18:26.808Z,3.90
2019-05-01T05:21:00.726Z,3.91
2019-05-01T05:23:34.908Z,4.08
2019-05-01T05:26:08.442Z,4.12
2019-05-01T05:28:41.307Z,4.16
2019-05-01T05:31:15.703Z,4.23
2019-05-01T05:33:50.128Z,4.07
2019-05-01T05:36:26.529Z,4.19
2019-05-01T05:39:20.964Z,4.17
2019-05-01T05:41:56.181Z,4.29
2019-05-01T05:44:29.558Z,4.30
2019-05-01T05:47:02.196Z,4.42
2019-05-01T05:49:35.345Z,4.67
2019-05-01T05:52:42.019Z,4.97
2019-05-01T05:55:27.870Z,5.00
2019-05-01T05:58:21.946Z,4.98
2019-05-01T06:01:33.538Z,5.05
2019-05-01T06:04:39.970Z,5.11
2019-05-01T06:07:29.673Z,5.34
2019-05-01T06:10:29.096Z,5.43
2019-05-01T06:13:21.923Z,5.83
2019-05-01T06:16:12.212Z,5.85
2019-05-01T06:18:58.978Z,5.98
2019-05-01T06:21:48.208Z,6.07
2019-05-01T06:24:27.060Z,6.23
2019-05-01T06:27:01.394Z,6.30
2019-05-01T06:29:35.819Z,6.53
2019-05-01T06:32:09.770Z,7.01
2019-05-01T06:34:42.759Z,7.23
2019-05-01T06:37:16.291Z,7.22
2019-05-01T06:39:49.930Z,7.22
2019-05-01T06:42:23.279Z,7.75
2019-05-01T06:45:03.855Z,7.88
2019-05-01T06:47:52.173Z,8.07
2019-05-01T06:50:37.122Z,8.09
2019-05-01T06:53:10.677Z,8.24
2019-05-01T06:55:44.832Z,8.52
2019-05-01T06:58:20.385Z,8.64
2019-05-01T07:00:54.517Z,8.58
2019-05-01T07:03:28.119Z,8.80
2019-05-01T07:06:13.852Z,8.77
2019-05-01T07:08:39.522Z,9.01
2019-05-01T07:11:15.505Z,9.14
2019-05-01T07:13:55.638Z,9.28
2019-05-01T07:16:33.158Z,9.57
2019-05-01T07:19:07.572Z,10.15
2019-05-01T07:21:40.886Z,10.39
2019-05-01T07:24:13.982Z,10.63
2019-05-01T07:26:49.131Z,10.91
2019-05-01T07:29:25.180Z,11.25
2019-05-01T07:32:01.695Z,11.46
2019-05-01T07:34:34.134Z,11.49
2019-05-01T07:37:08.643Z,11.83
2019-05-01T07:39:44.944Z,11.51
2019-05-01T07:42:29.338Z,12.23
2019-05-01T07:45:27.205Z,12.92
2019-05-01T07:48:05.629Z,13.09
2019-05-01T07:50:39.061Z,13.34
2019-05-01T07:53:13.053Z,13.49
2019-05-01T07:55:48.659Z,14.00
2019-05-01T07:58:22.052Z,14.21
2019-05-01T08:01:00.416Z,14.41
2019-05-01T08:03:38.062Z,14.26
2019-05-01T08:06:10.352Z,14.81
2019-05-01T08:08:44.076Z,15.26
2019-05-01T08:11:18.145Z,15.21
2019-05-01T08:13:51.517Z,15.91
2019-05-01T08:16:24.957Z,15.92
2019-05-01T08:19:05.946Z,15.10
2019-05-01T08:21:57.043Z,15.52
2019-05-01T08:24:30.196Z,16.16
2019-05-01T08:27:03.487Z,16.93
2019-05-01T08:29:58.555Z,17.56
2019-05-01T08:32:45.575Z,17.52
2019-05-01T08:35:21.784Z,18.16
2019-05-01T08:37:58.488Z,17.94
2019-05-01T08:40:31.707Z,17.85
2019-05-01T08:43:05.162Z,18.09
2019-05-01T08:45:57.126Z,17.99
2019-05-01T08:48:42.276Z,17.69
2019-05-01T08:51:15.573Z,17.73
2019-05-01T08:53:52.708Z,18.34
2019-05-01T08:56:23.760Z,18.33
2019-05-01T08:58:56.765Z,18.74
2019-05-01T09:01:30.689Z,18.57
2019-05-01T09:04:12.580Z,19.20
2019-05-01T09:06:39.448Z,18.75
2019-05-01T09:09:15.114Z,18.53
2019-05-01T09:11:48.790Z,18.59
2019-05-01T09:14:22.063Z,18.56
2019-05-01T09:16:55.230Z,19.00
2019-05-01T09:19:28.651Z,19.18
2019-05-01T09:22:02.200Z,18.87
2019-05-01T09:24:35.986Z,18.65
2019-05-01T09:27:29.499Z,18.86
2019-05-01T09:30:04.456Z,19.14
2019-05-01T09:32:37.904Z,19.37
2019-05-01T09:35:15.907Z,19.30
2019-05-01T09:37:46.597Z,19.27
2019-05-01T09:40:19.920Z,19.50
2019-05-01T09:42:54.613Z,19.09
2019-05-01T09:45:28.429Z,19.48
2019-05-01T09:48:01.904Z,19.69
2019-05-01T09:50:37.122Z,19.41
2019-05-01T09:53:34.186Z,19.62
2019-05-01T09:56:13.372Z,19.50
2019-05-01T09:58:46.630Z,19.53
2019-05-01T10:01:24.083Z,19.32
2019-05-01T10:03:55.100Z,19.29
2019-05-01T10:06:30.033Z,18.73
2019-05-01T10:09:03.810Z,19.08
2019-05-01T10:11:40.648Z,18.90
2019-05-01T10:14:13.467Z,18.96
2019-05-01T10:16:47.480Z,18.59
2019-05-01T10:19:20.901Z,18.38
2019-05-01T10:21:53.673Z,18.87
2019-05-01T10:24:32.147Z,19.39
2019-05-01T10:27:04.473Z,18.87
2019-05-01T10:29:56.912Z,18.98
2019-05-01T10:32:34.758Z,18.59
2019-05-01T10:35:21.577Z,18.76
2019-05-01T10:37:55.535Z,19.20
2019-05-01T10:40:32.307Z,19.10
2019-05-01T10:43:03.203Z,19.19
2019-05-01T10:45:35.187Z,19.21
2019-05-01T10:48:07.608Z,18.89
2019-05-01T10:50:40.699Z,18.96
2019-05-01T10:53:14.523Z,19.19
2019-05-01T10:55:47.196Z,19.15
2019-05-01T10:58:20.881Z,19.30
2019-05-01T11:01:00.372Z,18.79
2019-05-01T11:03:35.314Z,18.50
2019-05-01T11:06:08.370Z,18.40
2019-05-01T11:08:41.419Z,18.50
2019-05-01T11:11:15.379Z,18.59
2019-05-01T11:13:48.402Z,18.72
2019-05-01T11:16:22.194Z,18.49
2019-05-01T11:18:55.718Z,18.33
2019-05-01T11:21:28.764Z,18.79
2019-05-01T11:24:02.610Z,18.64
2019-05-01T11:26:35.768Z,18.39
2019-05-01T11:29:08.769Z,18.61
2019-05-01T11:31:54.340Z,18.80
2019-05-01T11:34:55.581Z,18.59
2019-05-01T11:37:37.427Z,19.18
2019-05-01T11:40:20.571Z,18.59
2019-05-01T11:42:53.770Z,18.80
2019-05-01T11:45:26.502Z,19.04
2019-05-01T11:47:59.641Z,18.74
2019-05-01T11:50:32.389Z,18.61
2019-05-01T11:53:05.955Z,18.84
2019-05-01T11:55:39.602Z,18.64
2019-05-01T11:58:13.013Z,18.97
2019-05-01T12:00:47.793Z,18.69
2019-05-01T12:03:21.103Z,18.77
2019-05-01T12:05:54.196Z,19.01
2019-05-01T12:08:28.167Z,18.96
2019-05-01T12:11:03.178Z,19.36
2019-05-01T12:13:43.576Z,19.25
2019-05-01T12:16:26.386Z,19.56
2019-05-01T12:18:59.600Z,19.32
2019-05-01T12:21:32.666Z,18.96
2019-05-01T12:24:05.505Z,19.40
2019-05-01T12:26:37.179Z,19.76
2019-05-01T12:29:10.878Z,19.36
2019-05-01T12:31:44.075Z,19.33
2019-05-01T12:34:17.041Z,18.99
2019-05-01T12:36:52.182Z,19.51
2019-05-01T12:39:25.313Z,19.82
2019-05-01T12:42:00.857Z,20.19
2019-05-01T12:44:34.571Z,19.77
2019-05-01T12:47:17.469Z,20.04
2019-05-01T12:49:50.971Z,20.37
2019-05-01T12:52:32.730Z,20.59
2019-05-01T12:55:11.521Z,20.68
2019-05-01T12:57:45.468Z,20.52
2019-05-01T13:00:20.477Z,20.80
2019-05-01T13:02:54.063Z,21.14
2019-05-01T13:05:27.280Z,20.97
2019-05-01T13:08:00.719Z,20.75
2019-05-01T13:10:33.416Z,21.48
2019-05-01T13:13:04.448Z,21.79
2019-05-01T13:15:37.596Z,20.71
2019-05-01T13:18:10.601Z,21.28
2019-05-01T13:20:44.184Z,21.05
2019-05-01T13:23:18.606Z,21.08
2019-05-01T13:25:52.508Z,21.44
2019-05-01T13:29:02.515Z,21.39
2019-05-01T13:31:54.429Z,21.41
2019-05-01T13:34:28.085Z,21.41
2019-05-01T13:37:03.091Z,21.45
2019-05-01T13:39:36.426Z,21.05
2019-05-01T13:42:09.629Z,21.24
2019-05-01T13:44:43.947Z,21.69
2019-05-01T13:47:17.067Z,22.65
2019-05-01T13:49:50.438Z,23.82
2019-05-01T13:52:23.960Z,24.35
2019-05-01T13:54:57.852Z,23.14
2019-05-01T13:57:31.125Z,23.78
2019-05-01T14:00:04.378Z,23.61
2019-05-01T14:02:37.413Z,23.68
2019-05-01T14:05:11.384Z,23.69
2019-05-01T14:07:44.797Z,23.97
2019-05-01T14:10:18.141Z,25.45
2019-05-01T14:12:51.417Z,24.40
2019-05-01T14:15:25.156Z,25.51
2019-05-01T14:17:58.630Z,24.86
2019-05-01T14:20:50.602Z,24.10
2019-05-01T14:23:42.504Z,25.09
2019-05-01T14:26:17.052Z,25.58
2019-05-01T14:28:50.708Z,25.02
2019-05-01T14:31:25.605Z,24.22
2019-05-01T14:33:58.796Z,25.29
2019-05-01T14:36:32.399Z,25.14
2019-05-01T14:39:07.308Z,25.56
2019-05-01T14:41:40.511Z,25.10
2019-05-01T14:44:14.164Z,25.83
2019-05-01T14:46:47.020Z,25.87
2019-05-01T14:49:19.903Z,25.26
2019-05-01T14:51:53.739Z,24.08
2019-05-01T14:54:27.685Z,26.13
2019-05-01T14:57:01.253Z,25.65
2019-05-01T14:59:34.842Z,25.76
2019-05-01T15:02:07.917Z,25.25
2019-05-01T15:04:41.782Z,26.44
2019-05-01T15:07:15.055Z,25.57
2019-05-01T15:09:48.138Z,25.71
2019-05-01T15:12:21.886Z,26.59
2019-05-01T15:15:04.185Z,25.87
2019-05-01T15:17:43.364Z,24.55
2019-05-01T15:20:16.971Z,27.04
2019-05-01T15:22:49.839Z,26.76
2019-05-01T15:25:22.936Z,27.07
2019-05-01T15:27:56.225Z,27.49
2019-05-01T15:30:30.305Z,27.03
2019-05-01T15:33:03.911Z,24.50
2019-05-01T15:35:37.744Z,25.30
2019-05-01T15:38:11.537Z,24.27
2019-05-01T15:41:18.603Z,23.87
2019-05-01T15:44:10.124Z,22.66
2019-05-01T15:46:43.425Z,24.31
2019-05-01T15:49:16.743Z,24.28
2019-05-01T15:51:49.775Z,26.55
2019-05-01T15:54:23.791Z,23.65
2019-05-01T15:56:57.136Z,27.24
2019-05-01T15:59:30.532Z,26.67
2019-05-01T16:02:04.137Z,27.15
2019-05-01T16:04:37.582Z,27.77
2019-05-01T16:07:10.745Z,27.71
2019-05-01T16:09:43.533Z,27.30
2019-05-01T16:12:44.630Z,27.63
2019-05-01T16:15:29.846Z,26.68
2019-05-01T16:18:04.109Z,25.45
2019-05-01T16:20:37.602Z,25.54
2019-05-01T16:23:11.205Z,23.83
2019-05-01T16:25:45.222Z,24.20
2019-05-01T16:28:18.562Z,24.38
2019-05-01T16:30:52.026Z,24.06
2019-05-01T16:33:25.444Z,23.62
2019-05-01T16:35:58.785Z,23.30
2019-05-01T16:38:44.008Z,22.85
2019-05-01T16:41:17.471Z,22.86
2019-05-01T16:43:50.951Z,23.71
2019-05-01T16:46:25.626Z,24.99
2019-05-01T16:48:59.059Z,25.20
2019-05-01T16:51:32.656Z,24.92
2019-05-01T16:54:06.830Z,25.19
2019-05-01T16:56:39.580Z,25.02
2019-05-01T16:59:13.098Z,24.24
2019-05-01T17:02:01.558Z,23.29
2019-05-01T17:04:40.751Z,23.26
2019-05-01T17:07:36.030Z,21.98
2019-05-01T17:10:17.677Z,21.89
2019-05-01T17:12:55.578Z,21.69
2019-05-01T17:15:33.693Z,21.46
2019-05-01T17:18:07.365Z,21.08
2019-05-01T17:20:40.945Z,20.06
2019-05-01T17:23:14.726Z,19.81
2019-05-01T17:25:47.683Z,19.61
2019-05-01T17:28:21.219Z,19.47
2019-05-01T17:30:58.675Z,19.92
2019-05-01T17:33:32.079Z,20.04
2019-05-01T17:36:05.815Z,19.63
2019-05-01T17:38:49.239Z,18.82
2019-05-01T17:41:14.308Z,18.98
2019-05-01T17:43:49.364Z,18.72
2019-05-01T17:46:22.791Z,18.67
2019-05-01T17:48:56.196Z,18.41
2019-05-01T17:51:29.548Z,18.05
2019-05-01T17:54:02.898Z,17.81
2019-05-01T17:56:36.038Z,17.64
2019-05-01T17:59:09.405Z,17.64
2019-05-01T18:01:59.791Z,17.44
2019-05-01T18:04:50.382Z,17.31
2019-05-01T18:07:24.169Z,16.95
2019-05-01T18:09:57.633Z,16.81
2019-05-01T18:12:31.652Z,16.84
2019-05-01T18:15:05.175Z,16.47
2019-05-01T18:17:38.690Z,15.80
2019-05-01T18:20:12.600Z,15.36
2019-05-01T18:23:08.500Z,15.18
2019-05-01T18:26:04.905Z,14.99
2019-05-01T18:29:05.669Z,14.97
2019-05-01T18:31:35.749Z,15.26
2019-05-01T18:34:08.961Z,14.83
2019-05-01T18:36:47.059Z,14.83
2019-05-01T18:39:27.140Z,15.06
2019-05-01T18:42:05.458Z,14.68
2019-05-01T18:44:42.460Z,14.52
2019-05-01T18:47:14.437Z,14.21
2019-05-01T18:49:48.102Z,14.05
2019-05-01T18:52:21.621Z,14.36
2019-05-01T18:54:55.138Z,14.33
2019-05-01T18:57:29.024Z,13.97
2019-05-01T19:00:03.129Z,13.82
2019-05-01T19:02:39.035Z,13.71
2019-05-01T19:05:12.703Z,13.64
2019-05-01T19:07:46.124Z,13.62
2019-05-01T19:10:20.269Z,13.64
2019-05-01T19:12:54.116Z,13.65
2019-05-01T19:15:27.641Z,13.46
2019-05-01T19:18:00.448Z,13.03
2019-05-01T19:20:33.504Z,12.80
2019-05-01T19:23:07.365Z,13.04
2019-05-01T19:25:42.101Z,13.17
2019-05-01T19:28:15.823Z,12.73
2019-05-01T19:30:49.382Z,12.91
2019-05-01T19:33:23.164Z,12.85
2019-05-01T19:35:57.366Z,12.96
2019-05-01T19:38:34.809Z,12.76
2019-05-01T19:41:08.903Z,12.37
2019-05-01T19:43:42.152Z,12.33
2019-05-01T19:46:16.113Z,12.06
2019-05-01T19:48:52.650Z,11.93
2019-05-01T19:51:27.172Z,11.94
2019-05-01T19:54:00.971Z,11.97
2019-05-01T19:56:35.264Z,11.93
2019-05-01T19:59:10.164Z,11.79
2019-05-01T20:01:47.809Z,11.82
2019-05-01T20:04:20.200Z,11.78
2019-05-01T20:06:53.218Z,11.79
2019-05-01T20:09:27.199Z,11.57
2019-05-01T20:12:00.697Z,11.44
2019-05-01T20:14:34.429Z,11.63
2019-05-01T20:17:10.123Z,11.50
2019-05-01T20:19:44.139Z,11.33
2019-05-01T20:22:18.140Z,11.21
2019-05-01T20:24:51.919Z,10.98
2019-05-01T20:27:27.638Z,10.91
2019-05-01T20:30:00.834Z,10.95
2019-05-01T20:32:34.785Z,10.83
2019-05-01T20:35:08.187Z,10.76
2019-05-01T20:37:40.286Z,10.70
2019-05-01T20:40:14.257Z,10.60
2019-05-01T20:42:48.538Z,10.50
2019-05-01T20:45:22.388Z,10.36
2019-05-01T20:47:57.934Z,10.31
2019-05-01T20:50:31.711Z,10.31
2019-05-01T20:53:05.194Z,10.25
2019-05-01T20:55:39.258Z,10.28
2019-05-01T20:58:16.781Z,10.19
2019-05-01T21:00:57.852Z,10.18
2019-05-01T21:03:32.236Z,10.03
2019-05-01T21:06:12.459Z,9.80
2019-05-01T21:08:49.858Z,9.82
2019-05-01T21:11:28.803Z,9.70
2019-05-01T21:14:16.098Z,9.59
2019-05-01T21:16:39.566Z,9.52
2019-05-01T21:19:13.161Z,9.48
2019-05-01T21:21:46.243Z,9.51
2019-05-01T21:24:19.667Z,9.47
2019-05-01T21:26:53.464Z,9.50
2019-05-01T21:29:26.699Z,9.55
2019-05-01T21:32:00.183Z,9.45
2019-05-01T21:34:34.512Z,9.25
2019-05-01T21:37:07.485Z,9.17
2019-05-01T21:39:40.793Z,9.16
2019-05-01T21:42:15.960Z,9.17
2019-05-01T21:44:49.736Z,9.06
2019-05-01T21:47:23.529Z,9.01
2019-05-01T21:49:56.428Z,8.93
2019-05-01T21:52:29.840Z,8.94
2019-05-01T21:55:04.258Z,8.89
2019-05-01T21:57:40.713Z,8.91
2019-05-01T22:00:15.534Z,8.82
2019-05-01T22:02:48.640Z,8.86
2019-05-01T22:05:22.023Z,8.76
2019-05-01T22:07:58.642Z,8.63
2019-05-01T22:10:32.090Z,8.53
2019-05-01T22:13:05.676Z,8.51
2019-05-01T22:15:47.140Z,8.45
2019-05-01T22:18:35.778Z,8.43
2019-05-01T22:21:25.006Z,8.38
2019-05-01T22:24:17.692Z,8.30
2019-05-01T22:27:14.077Z,8.20
2019-05-01T22:29:53.546Z,8.14
2019-05-01T22:32:45.759Z,8.17
2019-05-01T22:35:27.374Z,8.25
2019-05-01T22:38:00.728Z,8.16
2019-05-01T22:41:07.533Z,8.03
2019-05-01T22:43:40.730Z,8.00
2019-05-01T22:46:22.734Z,7.97
2019-05-01T22:48:56.209Z,8.06
2019-05-01T22:51:27.334Z,8.04
2019-05-01T22:54:00.057Z,7.99
2019-05-01T22:56:33.271Z,7.92
2019-05-01T22:59:06.873Z,7.89
2019-05-01T23:01:40.153Z,7.86
2019-05-01T23:04:17.215Z,7.82
2019-05-01T23:06:48.125Z,7.87
2019-05-01T23:09:23.351Z,7.81
2019-05-01T23:11:58.156Z,7.77
2019-05-01T23:14:31.866Z,7.62
2019-05-01T23:17:20.126Z,7.56
2019-05-01T23:19:53.466Z,7.59
2019-05-01T23:22:26.500Z,7.49
2019-05-01T23:25:00.057Z,7.48
2019-05-01T23:27:34.201Z,7.50
2019-05-01T23:30:09.798Z,7.46
2019-05-01T23:32:43.604Z,7.39
2019-05-01T23:35:16.732Z,7.34
2019-05-01T23:37:49.882Z,7.31
2019-05-01T23:40:22.731Z,7.30
2019-05-01T23:42:56.730Z,7.30
2019-05-01T23:45:30.026Z,7.33
2019-05-01T23:48:03.800Z,7.36
2019-05-01T23:50:37.458Z,7.42
2019-05-01T23:53:14.020Z,7.32
2019-05-01T23:55:47.292Z,7.16
2019-05-01T23:58:20.579Z,7.09
